sensor_id;sensor_type;location;lat;lon;timestamp;P1;durP1;ratioP1;P2;durP2;ratioP2
5553;SDS011;2800;49.528;8.666;2023-11-19T00:01:26;7.90;;;6.10;;
5553;SDS011;2800;49.528;8.666;2023-11-19T00:03:51;7.17;;;5.83;;
5553;SDS011;2800;49.528;8.666;2023-11-19T00:06:18;7.57;;;5.40;;
5553;SDS011;2800;49.528;8.666;2023-11-19T00:08:43;9.07;;;6.10;;
5553;SDS011;2800;49.528;8.666;2023-11-19T00:11:09;14.10;;;5.90;;
5553;SDS011;2800;49.528;8.666;2023-11-19T00:13:34;9.83;;;6.00;;
5553;SDS011;2800;49.528;8.666;2023-11-19T00:16:00;8.67;;;6.17;;
5553;SDS011;2800;49.528;8.666;2023-11-19T00:18:25;8.40;;;6.10;;
5553;SDS011;2800;49.528;8.666;2023-11-19T00:20:51;6.83;;;5.37;;
5553;SDS011;2800;49.528;8.666;2023-11-19T00:23:16;8.43;;;5.30;;
5553;SDS011;2800;49.528;8.666;2023-11-19T00:25:42;6.60;;;4.60;;
5553;SDS011;2800;49.528;8.666;2023-11-19T00:28:07;7.40;;;4.90;;
5553;SDS011;2800;49.528;8.666;2023-11-19T00:30:33;7.83;;;4.93;;
5553;SDS011;2800;49.528;8.666;2023-11-19T00:32:58;8.03;;;5.30;;
5553;SDS011;2800;49.528;8.666;2023-11-19T00:35:24;7.40;;;5.00;;
5553;SDS011;2800;49.528;8.666;2023-11-19T00:37:49;8.83;;;4.87;;
5553;SDS011;2800;49.528;8.666;2023-11-19T00:40:16;7.67;;;4.87;;
5553;SDS011;2800;49.528;8.666;2023-11-19T00:42:43;5.77;;;3.37;;
5553;SDS011;2800;49.528;8.666;2023-11-19T00:45:08;6.30;;;3.60;;
5553;SDS011;2800;49.528;8.666;2023-11-19T00:47:34;5.43;;;3.20;;
5553;SDS011;2800;49.528;8.666;2023-11-19T00:50:00;5.40;;;3.20;;
5553;SDS011;2800;49.528;8.666;2023-11-19T00:52:26;5.23;;;2.97;;
5553;SDS011;2800;49.528;8.666;2023-11-19T00:54:51;6.57;;;3.40;;
5553;SDS011;2800;49.528;8.666;2023-11-19T00:57:17;5.40;;;3.13;;
5553;SDS011;2800;49.528;8.666;2023-11-19T00:59:42;5.47;;;3.17;;
5553;SDS011;2800;49.528;8.666;2023-11-19T01:02:08;4.90;;;2.77;;
5553;SDS011;2800;49.528;8.666;2023-11-19T01:04:34;4.67;;;2.80;;
5553;SDS011;2800;49.528;8.666;2023-11-19T01:07:03;5.60;;;3.00;;
5553;SDS011;2800;49.528;8.666;2023-11-19T01:09:30;4.63;;;2.77;;
5553;SDS011;2800;49.528;8.666;2023-11-19T01:11:57;4.70;;;2.70;;
5553;SDS011;2800;49.528;8.666;2023-11-19T01:14:25;5.07;;;3.07;;
5553;SDS011;2800;49.528;8.666;2023-11-19T01:16:51;4.40;;;2.20;;
5553;SDS011;2800;49.528;8.666;2023-11-19T01:19:18;4.93;;;2.87;;
5553;SDS011;2800;49.528;8.666;2023-11-19T01:21:44;4.90;;;2.57;;
5553;SDS011;2800;49.528;8.666;2023-11-19T01:24:10;4.80;;;2.60;;
5553;SDS011;2800;49.528;8.666;2023-11-19T01:26:38;5.70;;;2.70;;
5553;SDS011;2800;49.528;8.666;2023-11-19T01:29:03;4.73;;;2.70;;
5553;SDS011;2800;49.528;8.666;2023-11-19T01:31:29;4.30;;;2.20;;
5553;SDS011;2800;49.528;8.666;2023-11-19T01:33:56;5.03;;;2.33;;
5553;SDS011;2800;49.528;8.666;2023-11-19T01:36:22;4.10;;;2.10;;
5553;SDS011;2800;49.528;8.666;2023-11-19T01:38:48;4.47;;;2.20;;
5553;SDS011;2800;49.528;8.666;2023-11-19T01:41:14;4.70;;;2.40;;
5553;SDS011;2800;49.528;8.666;2023-11-19T01:43:39;4.30;;;2.27;;
5553;SDS011;2800;49.528;8.666;2023-11-19T01:46:08;4.50;;;2.37;;
5553;SDS011;2800;49.528;8.666;2023-11-19T01:48:38;4.37;;;2.37;;
5553;SDS011;2800;49.528;8.666;2023-11-19T01:51:07;4.10;;;2.30;;
5553;SDS011;2800;49.528;8.666;2023-11-19T01:53:34;4.10;;;2.00;;
5553;SDS011;2800;49.528;8.666;2023-11-19T01:56:01;4.20;;;2.10;;
5553;SDS011;2800;49.528;8.666;2023-11-19T01:58:28;4.07;;;2.00;;
5553;SDS011;2800;49.528;8.666;2023-11-19T02:00:55;4.30;;;2.10;;
5553;SDS011;2800;49.528;8.666;2023-11-19T02:03:21;4.80;;;2.20;;
5553;SDS011;2800;49.528;8.666;2023-11-19T02:05:50;4.30;;;2.20;;
5553;SDS011;2800;49.528;8.666;2023-11-19T02:08:16;4.00;;;1.93;;
5553;SDS011;2800;49.528;8.666;2023-11-19T02:10:42;4.20;;;2.00;;
5553;SDS011;2800;49.528;8.666;2023-11-19T02:13:08;4.60;;;2.20;;
5553;SDS011;2800;49.528;8.666;2023-11-19T02:15:35;4.10;;;2.10;;
5553;SDS011;2800;49.528;8.666;2023-11-19T02:18:19;4.50;;;2.30;;
5553;SDS011;2800;49.528;8.666;2023-11-19T02:20:52;4.43;;;2.20;;
5553;SDS011;2800;49.528;8.666;2023-11-19T02:23:18;4.40;;;2.40;;
5553;SDS011;2800;49.528;8.666;2023-11-19T02:25:51;4.60;;;2.70;;
5553;SDS011;2800;49.528;8.666;2023-11-19T02:28:22;4.80;;;2.60;;
5553;SDS011;2800;49.528;8.666;2023-11-19T02:30:48;4.70;;;2.77;;
5553;SDS011;2800;49.528;8.666;2023-11-19T02:33:13;5.17;;;2.83;;
5553;SDS011;2800;49.528;8.666;2023-11-19T02:35:40;5.47;;;3.17;;
5553;SDS011;2800;49.528;8.666;2023-11-19T02:38:06;5.73;;;3.30;;
5553;SDS011;2800;49.528;8.666;2023-11-19T02:40:32;5.60;;;3.30;;
5553;SDS011;2800;49.528;8.666;2023-11-19T02:42:58;5.37;;;3.27;;
5553;SDS011;2800;49.528;8.666;2023-11-19T02:45:23;5.70;;;3.80;;
5553;SDS011;2800;49.528;8.666;2023-11-19T02:47:50;5.17;;;3.27;;
5553;SDS011;2800;49.528;8.666;2023-11-19T02:50:17;5.00;;;3.30;;
5553;SDS011;2800;49.528;8.666;2023-11-19T02:52:49;5.87;;;3.63;;
5553;SDS011;2800;49.528;8.666;2023-11-19T02:55:16;4.80;;;3.03;;
5553;SDS011;2800;49.528;8.666;2023-11-19T02:57:43;5.47;;;3.17;;
5553;SDS011;2800;49.528;8.666;2023-11-19T03:00:17;6.27;;;4.00;;
5553;SDS011;2800;49.528;8.666;2023-11-19T03:02:46;6.50;;;3.63;;
5553;SDS011;2800;49.528;8.666;2023-11-19T03:05:18;4.90;;;3.30;;
5553;SDS011;2800;49.528;8.666;2023-11-19T03:07:44;5.57;;;3.87;;
5553;SDS011;2800;49.528;8.666;2023-11-19T03:10:10;6.47;;;3.90;;
5553;SDS011;2800;49.528;8.666;2023-11-19T03:12:39;7.07;;;4.07;;
5553;SDS011;2800;49.528;8.666;2023-11-19T03:15:05;5.50;;;3.53;;
5553;SDS011;2800;49.528;8.666;2023-11-19T03:17:32;6.03;;;3.60;;
5553;SDS011;2800;49.528;8.666;2023-11-19T03:19:59;6.10;;;4.30;;
5553;SDS011;2800;49.528;8.666;2023-11-19T03:22:26;8.90;;;4.43;;
5553;SDS011;2800;49.528;8.666;2023-11-19T03:24:51;6.30;;;4.30;;
5553;SDS011;2800;49.528;8.666;2023-11-19T03:27:17;5.87;;;4.30;;
5553;SDS011;2800;49.528;8.666;2023-11-19T03:29:42;7.10;;;4.00;;
5553;SDS011;2800;49.528;8.666;2023-11-19T03:32:08;7.40;;;4.40;;
5553;SDS011;2800;49.528;8.666;2023-11-19T03:34:33;6.43;;;4.50;;
5553;SDS011;2800;49.528;8.666;2023-11-19T03:36:59;5.50;;;3.93;;
5553;SDS011;2800;49.528;8.666;2023-11-19T03:39:25;6.73;;;4.60;;
5553;SDS011;2800;49.528;8.666;2023-11-19T03:41:52;5.83;;;4.27;;
5553;SDS011;2800;49.528;8.666;2023-11-19T03:44:17;6.43;;;4.50;;
5553;SDS011;2800;49.528;8.666;2023-11-19T03:46:44;6.80;;;4.80;;
5553;SDS011;2800;49.528;8.666;2023-11-19T03:49:09;7.00;;;4.90;;
5553;SDS011;2800;49.528;8.666;2023-11-19T03:51:35;6.30;;;4.70;;
5553;SDS011;2800;49.528;8.666;2023-11-19T03:54:00;7.17;;;5.50;;
5553;SDS011;2800;49.528;8.666;2023-11-19T03:56:26;8.00;;;4.70;;
5553;SDS011;2800;49.528;8.666;2023-11-19T03:58:52;7.23;;;4.70;;
5553;SDS011;2800;49.528;8.666;2023-11-19T04:01:18;7.40;;;5.00;;
5553;SDS011;2800;49.528;8.666;2023-11-19T04:03:43;7.30;;;5.10;;
5553;SDS011;2800;49.528;8.666;2023-11-19T04:06:09;7.13;;;4.83;;
5553;SDS011;2800;49.528;8.666;2023-11-19T04:08:34;7.00;;;5.00;;
5553;SDS011;2800;49.528;8.666;2023-11-19T04:11:00;6.80;;;5.20;;
5553;SDS011;2800;49.528;8.666;2023-11-19T04:13:27;7.60;;;5.20;;
5553;SDS011;2800;49.528;8.666;2023-11-19T04:15:53;7.10;;;5.77;;
5553;SDS011;2800;49.528;8.666;2023-11-19T04:18:18;7.80;;;5.80;;
5553;SDS011;2800;49.528;8.666;2023-11-19T04:20:44;8.43;;;6.00;;
5553;SDS011;2800;49.528;8.666;2023-11-19T04:23:09;9.20;;;6.60;;
5553;SDS011;2800;49.528;8.666;2023-11-19T04:25:36;8.03;;;6.10;;
5553;SDS011;2800;49.528;8.666;2023-11-19T04:28:02;8.57;;;6.53;;
5553;SDS011;2800;49.528;8.666;2023-11-19T04:30:28;8.43;;;6.03;;
5553;SDS011;2800;49.528;8.666;2023-11-19T04:32:53;7.40;;;5.97;;
5553;SDS011;2800;49.528;8.666;2023-11-19T04:35:19;7.80;;;6.10;;
5553;SDS011;2800;49.528;8.666;2023-11-19T04:37:44;8.07;;;5.80;;
5553;SDS011;2800;49.528;8.666;2023-11-19T04:40:10;8.37;;;6.37;;
5553;SDS011;2800;49.528;8.666;2023-11-19T04:42:37;7.87;;;6.13;;
5553;SDS011;2800;49.528;8.666;2023-11-19T04:45:05;9.00;;;6.43;;
5553;SDS011;2800;49.528;8.666;2023-11-19T04:47:31;8.47;;;5.87;;
5553;SDS011;2800;49.528;8.666;2023-11-19T04:50:00;10.03;;;6.37;;
5553;SDS011;2800;49.528;8.666;2023-11-19T04:52:26;7.77;;;6.23;;
5553;SDS011;2800;49.528;8.666;2023-11-19T04:54:51;9.37;;;6.00;;
5553;SDS011;2800;49.528;8.666;2023-11-19T04:57:17;8.17;;;5.93;;
5553;SDS011;2800;49.528;8.666;2023-11-19T04:59:43;9.90;;;6.27;;
5553;SDS011;2800;49.528;8.666;2023-11-19T05:02:08;8.33;;;6.57;;
5553;SDS011;2800;49.528;8.666;2023-11-19T05:04:34;7.23;;;5.73;;
5553;SDS011;2800;49.528;8.666;2023-11-19T05:07:00;15.57;;;12.80;;
5553;SDS011;2800;49.528;8.666;2023-11-19T05:09:26;9.03;;;7.10;;
5553;SDS011;2800;49.528;8.666;2023-11-19T05:11:51;10.57;;;8.90;;
5553;SDS011;2800;49.528;8.666;2023-11-19T05:14:17;20.43;;;16.27;;
5553;SDS011;2800;49.528;8.666;2023-11-19T05:16:45;10.47;;;8.40;;
5553;SDS011;2800;49.528;8.666;2023-11-19T05:19:10;9.80;;;7.17;;
5553;SDS011;2800;49.528;8.666;2023-11-19T05:21:36;8.83;;;6.13;;
5553;SDS011;2800;49.528;8.666;2023-11-19T05:24:02;8.10;;;5.73;;
5553;SDS011;2800;49.528;8.666;2023-11-19T05:26:30;9.17;;;6.47;;
5553;SDS011;2800;49.528;8.666;2023-11-19T05:28:56;8.80;;;5.73;;
5553;SDS011;2800;49.528;8.666;2023-11-19T05:31:22;7.80;;;5.43;;
5553;SDS011;2800;49.528;8.666;2023-11-19T05:33:47;8.20;;;6.10;;
5553;SDS011;2800;49.528;8.666;2023-11-19T05:36:13;8.10;;;5.67;;
5553;SDS011;2800;49.528;8.666;2023-11-19T05:38:38;8.30;;;6.40;;
5553;SDS011;2800;49.528;8.666;2023-11-19T05:41:05;8.37;;;5.80;;
5553;SDS011;2800;49.528;8.666;2023-11-19T05:43:31;7.77;;;5.93;;
5553;SDS011;2800;49.528;8.666;2023-11-19T05:45:57;8.53;;;6.07;;
5553;SDS011;2800;49.528;8.666;2023-11-19T05:48:24;9.13;;;6.20;;
5553;SDS011;2800;49.528;8.666;2023-11-19T05:50:51;8.80;;;5.60;;
5553;SDS011;2800;49.528;8.666;2023-11-19T05:53:16;7.73;;;5.13;;
5553;SDS011;2800;49.528;8.666;2023-11-19T05:55:42;8.43;;;5.80;;
5553;SDS011;2800;49.528;8.666;2023-11-19T05:58:19;8.47;;;5.80;;
5553;SDS011;2800;49.528;8.666;2023-11-19T06:00:51;8.80;;;5.70;;
5553;SDS011;2800;49.528;8.666;2023-11-19T06:03:17;8.00;;;5.23;;
5553;SDS011;2800;49.528;8.666;2023-11-19T06:05:46;8.80;;;5.10;;
5553;SDS011;2800;49.528;8.666;2023-11-19T06:08:12;7.97;;;5.63;;
5553;SDS011;2800;49.528;8.666;2023-11-19T06:10:41;7.67;;;5.03;;
5553;SDS011;2800;49.528;8.666;2023-11-19T06:13:07;8.33;;;5.40;;
5553;SDS011;2800;49.528;8.666;2023-11-19T06:15:35;7.70;;;5.37;;
5553;SDS011;2800;49.528;8.666;2023-11-19T06:18:01;8.10;;;5.30;;
5553;SDS011;2800;49.528;8.666;2023-11-19T06:20:28;7.13;;;4.67;;
5553;SDS011;2800;49.528;8.666;2023-11-19T06:22:57;8.27;;;4.90;;
5553;SDS011;2800;49.528;8.666;2023-11-19T06:25:23;7.93;;;5.00;;
5553;SDS011;2800;49.528;8.666;2023-11-19T06:27:51;8.27;;;4.90;;
5553;SDS011;2800;49.528;8.666;2023-11-19T06:30:18;8.80;;;6.03;;
5553;SDS011;2800;49.528;8.666;2023-11-19T06:32:44;9.93;;;4.97;;
5553;SDS011;2800;49.528;8.666;2023-11-19T06:35:10;8.87;;;5.53;;
5553;SDS011;2800;49.528;8.666;2023-11-19T06:37:36;7.10;;;5.10;;
5553;SDS011;2800;49.528;8.666;2023-11-19T06:40:04;7.67;;;4.87;;
5553;SDS011;2800;49.528;8.666;2023-11-19T06:42:30;7.90;;;5.00;;
5553;SDS011;2800;49.528;8.666;2023-11-19T06:44:56;9.00;;;5.30;;
5553;SDS011;2800;49.528;8.666;2023-11-19T06:47:22;8.13;;;5.10;;
5553;SDS011;2800;49.528;8.666;2023-11-19T06:49:50;9.57;;;5.60;;
5553;SDS011;2800;49.528;8.666;2023-11-19T06:52:16;9.10;;;5.10;;
5553;SDS011;2800;49.528;8.666;2023-11-19T06:54:41;6.90;;;4.40;;
5553;SDS011;2800;49.528;8.666;2023-11-19T06:57:07;7.00;;;4.90;;
5553;SDS011;2800;49.528;8.666;2023-11-19T06:59:34;7.53;;;4.93;;
5553;SDS011;2800;49.528;8.666;2023-11-19T07:01:59;7.93;;;6.57;;
5553;SDS011;2800;49.528;8.666;2023-11-19T07:04:25;10.17;;;8.00;;
5553;SDS011;2800;49.528;8.666;2023-11-19T07:06:50;7.10;;;4.70;;
5553;SDS011;2800;49.528;8.666;2023-11-19T07:09:18;6.93;;;3.43;;
5553;SDS011;2800;49.528;8.666;2023-11-19T07:11:44;7.57;;;4.70;;
5553;SDS011;2800;49.528;8.666;2023-11-19T07:14:10;10.83;;;6.67;;
5553;SDS011;2800;49.528;8.666;2023-11-19T07:16:36;6.27;;;3.57;;
5553;SDS011;2800;49.528;8.666;2023-11-19T07:19:02;7.50;;;5.30;;
5553;SDS011;2800;49.528;8.666;2023-11-19T07:21:28;7.00;;;4.50;;
5553;SDS011;2800;49.528;8.666;2023-11-19T07:23:54;8.80;;;4.53;;
5553;SDS011;2800;49.528;8.666;2023-11-19T07:26:20;12.03;;;10.80;;
5553;SDS011;2800;49.528;8.666;2023-11-19T07:28:46;7.53;;;5.03;;
5553;SDS011;2800;49.528;8.666;2023-11-19T07:31:12;7.53;;;4.60;;
5553;SDS011;2800;49.528;8.666;2023-11-19T07:33:41;9.40;;;3.90;;
5553;SDS011;2800;49.528;8.666;2023-11-19T07:36:10;8.50;;;4.27;;
5553;SDS011;2800;49.528;8.666;2023-11-19T07:38:36;6.63;;;4.10;;
5553;SDS011;2800;49.528;8.666;2023-11-19T07:41:02;5.43;;;2.67;;
5553;SDS011;2800;49.528;8.666;2023-11-19T07:43:27;6.40;;;2.60;;
5553;SDS011;2800;49.528;8.666;2023-11-19T07:45:53;5.30;;;2.40;;
5553;SDS011;2800;49.528;8.666;2023-11-19T07:48:19;7.80;;;2.37;;
5553;SDS011;2800;49.528;8.666;2023-11-19T07:50:51;7.43;;;2.53;;
5553;SDS011;2800;49.528;8.666;2023-11-19T07:53:17;5.20;;;2.20;;
5553;SDS011;2800;49.528;8.666;2023-11-19T07:55:44;5.57;;;2.30;;
5553;SDS011;2800;49.528;8.666;2023-11-19T07:58:12;5.73;;;2.20;;
5553;SDS011;2800;49.528;8.666;2023-11-19T08:00:38;6.90;;;2.30;;
5553;SDS011;2800;49.528;8.666;2023-11-19T08:03:04;6.13;;;2.30;;
5553;SDS011;2800;49.528;8.666;2023-11-19T08:05:30;4.80;;;2.20;;
5553;SDS011;2800;49.528;8.666;2023-11-19T08:07:56;7.37;;;2.10;;
5553;SDS011;2800;49.528;8.666;2023-11-19T08:10:23;6.17;;;2.57;;
5553;SDS011;2800;49.528;8.666;2023-11-19T08:12:48;5.93;;;2.40;;
5553;SDS011;2800;49.528;8.666;2023-11-19T08:15:14;6.50;;;2.60;;
5553;SDS011;2800;49.528;8.666;2023-11-19T08:17:40;5.20;;;2.30;;
5553;SDS011;2800;49.528;8.666;2023-11-19T08:20:07;5.93;;;2.57;;
5553;SDS011;2800;49.528;8.666;2023-11-19T08:22:37;6.63;;;2.90;;
5553;SDS011;2800;49.528;8.666;2023-11-19T08:25:06;13.70;;;8.80;;
5553;SDS011;2800;49.528;8.666;2023-11-19T08:27:33;9.93;;;5.00;;
5553;SDS011;2800;49.528;8.666;2023-11-19T08:29:58;6.50;;;3.03;;
5553;SDS011;2800;49.528;8.666;2023-11-19T08:32:24;5.90;;;2.83;;
5553;SDS011;2800;49.528;8.666;2023-11-19T08:34:50;7.90;;;3.00;;
5553;SDS011;2800;49.528;8.666;2023-11-19T08:37:16;6.33;;;3.40;;
5553;SDS011;2800;49.528;8.666;2023-11-19T08:39:52;10.67;;;5.27;;
5553;SDS011;2800;49.528;8.666;2023-11-19T08:42:17;7.43;;;4.70;;
5553;SDS011;2800;49.528;8.666;2023-11-19T08:44:43;6.30;;;4.30;;
5553;SDS011;2800;49.528;8.666;2023-11-19T08:47:12;6.43;;;3.90;;
5553;SDS011;2800;49.528;8.666;2023-11-19T08:49:38;6.87;;;4.10;;
5553;SDS011;2800;49.528;8.666;2023-11-19T08:52:04;7.60;;;4.83;;
5553;SDS011;2800;49.528;8.666;2023-11-19T08:54:30;6.47;;;3.40;;
5553;SDS011;2800;49.528;8.666;2023-11-19T08:56:55;11.07;;;6.70;;
5553;SDS011;2800;49.528;8.666;2023-11-19T08:59:21;10.07;;;4.40;;
5553;SDS011;2800;49.528;8.666;2023-11-19T09:01:46;6.50;;;2.70;;
5553;SDS011;2800;49.528;8.666;2023-11-19T09:04:12;6.30;;;2.23;;
5553;SDS011;2800;49.528;8.666;2023-11-19T09:06:37;7.93;;;2.83;;
5553;SDS011;2800;49.528;8.666;2023-11-19T09:09:03;5.17;;;2.13;;
5553;SDS011;2800;49.528;8.666;2023-11-19T09:11:30;6.47;;;2.17;;
5553;SDS011;2800;49.528;8.666;2023-11-19T09:13:56;5.30;;;2.27;;
5553;SDS011;2800;49.528;8.666;2023-11-19T09:16:22;7.13;;;2.27;;
5553;SDS011;2800;49.528;8.666;2023-11-19T09:18:47;6.33;;;2.40;;
5553;SDS011;2800;49.528;8.666;2023-11-19T09:21:13;7.20;;;2.73;;
5553;SDS011;2800;49.528;8.666;2023-11-19T09:23:38;7.37;;;2.17;;
5553;SDS011;2800;49.528;8.666;2023-11-19T09:26:05;5.70;;;2.30;;
5553;SDS011;2800;49.528;8.666;2023-11-19T09:28:31;8.20;;;2.20;;
5553;SDS011;2800;49.528;8.666;2023-11-19T09:30:57;8.27;;;2.37;;
5553;SDS011;2800;49.528;8.666;2023-11-19T09:33:23;7.53;;;2.00;;
5553;SDS011;2800;49.528;8.666;2023-11-19T09:35:49;6.47;;;2.17;;
5553;SDS011;2800;49.528;8.666;2023-11-19T09:38:15;6.90;;;2.23;;
5553;SDS011;2800;49.528;8.666;2023-11-19T09:40:41;6.60;;;2.60;;
5553;SDS011;2800;49.528;8.666;2023-11-19T09:43:07;6.23;;;2.40;;
5553;SDS011;2800;49.528;8.666;2023-11-19T09:45:45;8.20;;;2.70;;
5553;SDS011;2800;49.528;8.666;2023-11-19T09:48:17;8.97;;;2.53;;
5553;SDS011;2800;49.528;8.666;2023-11-19T09:50:47;7.00;;;2.57;;
5553;SDS011;2800;49.528;8.666;2023-11-19T09:53:13;6.70;;;2.43;;
5553;SDS011;2800;49.528;8.666;2023-11-19T09:55:42;6.70;;;2.40;;
5553;SDS011;2800;49.528;8.666;2023-11-19T09:58:08;5.27;;;2.30;;
5553;SDS011;2800;49.528;8.666;2023-11-19T10:00:36;7.97;;;2.70;;
5553;SDS011;2800;49.528;8.666;2023-11-19T10:03:02;9.57;;;2.47;;
5553;SDS011;2800;49.528;8.666;2023-11-19T10:05:30;6.90;;;2.50;;
5553;SDS011;2800;49.528;8.666;2023-11-19T10:07:55;6.07;;;2.50;;
5553;SDS011;2800;49.528;8.666;2023-11-19T10:10:21;5.50;;;2.03;;
5553;SDS011;2800;49.528;8.666;2023-11-19T10:12:47;7.90;;;2.20;;
5553;SDS011;2800;49.528;8.666;2023-11-19T10:15:22;6.90;;;2.20;;
5553;SDS011;2800;49.528;8.666;2023-11-19T10:17:55;8.17;;;2.37;;
5553;SDS011;2800;49.528;8.666;2023-11-19T10:20:21;8.17;;;2.13;;
5553;SDS011;2800;49.528;8.666;2023-11-19T10:22:47;6.50;;;2.77;;
5553;SDS011;2800;49.528;8.666;2023-11-19T10:25:31;7.90;;;2.77;;
5553;SDS011;2800;49.528;8.666;2023-11-19T10:27:58;8.10;;;3.43;;
5553;SDS011;2800;49.528;8.666;2023-11-19T10:30:30;6.83;;;2.80;;
5553;SDS011;2800;49.528;8.666;2023-11-19T10:35:35;6.97;;;2.60;;
5553;SDS011;2800;49.528;8.666;2023-11-19T10:38:15;22.37;;;11.53;;
5553;SDS011;2800;49.528;8.666;2023-11-19T10:40:41;6.60;;;2.63;;
5553;SDS011;2800;49.528;8.666;2023-11-19T10:43:07;6.40;;;2.20;;
5553;SDS011;2800;49.528;8.666;2023-11-19T10:45:33;5.60;;;2.13;;
5553;SDS011;2800;49.528;8.666;2023-11-19T10:48:00;7.40;;;1.97;;
5553;SDS011;2800;49.528;8.666;2023-11-19T10:50:29;7.03;;;1.77;;
5553;SDS011;2800;49.528;8.666;2023-11-19T10:52:55;11.30;;;2.10;;
5553;SDS011;2800;49.528;8.666;2023-11-19T10:55:28;8.23;;;1.70;;
5553;SDS011;2800;49.528;8.666;2023-11-19T10:58:01;5.07;;;1.50;;
5553;SDS011;2800;49.528;8.666;2023-11-19T11:00:29;6.80;;;1.90;;
5553;SDS011;2800;49.528;8.666;2023-11-19T11:03:01;8.93;;;2.13;;
5553;SDS011;2800;49.528;8.666;2023-11-19T11:05:27;5.40;;;1.70;;
5553;SDS011;2800;49.528;8.666;2023-11-19T11:07:58;8.20;;;2.00;;
5553;SDS011;2800;49.528;8.666;2023-11-19T11:10:25;7.00;;;1.80;;
5553;SDS011;2800;49.528;8.666;2023-11-19T11:12:52;4.90;;;1.77;;
5553;SDS011;2800;49.528;8.666;2023-11-19T11:15:24;6.53;;;1.70;;
5553;SDS011;2800;49.528;8.666;2023-11-19T11:17:57;7.60;;;2.30;;
5553;SDS011;2800;49.528;8.666;2023-11-19T11:20:26;9.63;;;2.00;;
5553;SDS011;2800;49.528;8.666;2023-11-19T11:23:04;9.80;;;2.23;;
5553;SDS011;2800;49.528;8.666;2023-11-19T11:28:20;5.80;;;1.90;;
5553;SDS011;2800;49.528;8.666;2023-11-19T11:37:17;6.33;;;1.77;;
5553;SDS011;2800;49.528;8.666;2023-11-19T11:39:51;5.13;;;1.77;;
5553;SDS011;2800;49.528;8.666;2023-11-19T11:50:11;9.80;;;2.00;;
5553;SDS011;2800;49.528;8.666;2023-11-19T11:53:21;5.30;;;1.80;;
5553;SDS011;2800;49.528;8.666;2023-11-19T11:55:34;12.33;;;2.40;;
5553;SDS011;2800;49.528;8.666;2023-11-19T11:58:13;8.50;;;2.60;;
5553;SDS011;2800;49.528;8.666;2023-11-19T12:00:40;8.03;;;2.77;;
5553;SDS011;2800;49.528;8.666;2023-11-19T12:03:06;7.93;;;2.30;;
5553;SDS011;2800;49.528;8.666;2023-11-19T12:05:34;7.97;;;2.27;;
5553;SDS011;2800;49.528;8.666;2023-11-19T12:08:05;7.57;;;2.80;;
5553;SDS011;2800;49.528;8.666;2023-11-19T12:10:34;5.90;;;2.33;;
5553;SDS011;2800;49.528;8.666;2023-11-19T12:13:08;8.87;;;3.10;;
5553;SDS011;2800;49.528;8.666;2023-11-19T12:15:34;7.10;;;2.53;;
5553;SDS011;2800;49.528;8.666;2023-11-19T12:18:31;10.93;;;4.03;;
5553;SDS011;2800;49.528;8.666;2023-11-19T12:20:57;8.50;;;2.30;;
5553;SDS011;2800;49.528;8.666;2023-11-19T12:23:29;6.20;;;2.13;;
5553;SDS011;2800;49.528;8.666;2023-11-19T12:25:56;7.20;;;2.00;;
5553;SDS011;2800;49.528;8.666;2023-11-19T12:28:22;6.77;;;2.00;;
5553;SDS011;2800;49.528;8.666;2023-11-19T12:30:49;9.67;;;2.30;;
5553;SDS011;2800;49.528;8.666;2023-11-19T12:33:16;6.60;;;2.13;;
5553;SDS011;2800;49.528;8.666;2023-11-19T12:35:42;8.90;;;3.37;;
5553;SDS011;2800;49.528;8.666;2023-11-19T12:38:18;6.87;;;2.63;;
5553;SDS011;2800;49.528;8.666;2023-11-19T12:40:45;6.30;;;2.50;;
5553;SDS011;2800;49.528;8.666;2023-11-19T12:43:20;6.30;;;2.20;;
5553;SDS011;2800;49.528;8.666;2023-11-19T12:45:47;9.03;;;2.40;;
5553;SDS011;2800;49.528;8.666;2023-11-19T12:48:13;6.30;;;2.37;;
5553;SDS011;2800;49.528;8.666;2023-11-19T12:50:57;6.83;;;2.13;;
5553;SDS011;2800;49.528;8.666;2023-11-19T12:53:23;7.00;;;2.53;;
5553;SDS011;2800;49.528;8.666;2023-11-19T12:55:53;8.50;;;2.20;;
5553;SDS011;2800;49.528;8.666;2023-11-19T13:01:02;7.40;;;2.20;;
5553;SDS011;2800;49.528;8.666;2023-11-19T13:03:30;5.40;;;2.00;;
5553;SDS011;2800;49.528;8.666;2023-11-19T13:06:01;7.40;;;2.20;;
5553;SDS011;2800;49.528;8.666;2023-11-19T13:08:28;13.87;;;2.80;;
5553;SDS011;2800;49.528;8.666;2023-11-19T13:11:00;7.43;;;2.53;;
5553;SDS011;2800;49.528;8.666;2023-11-19T13:13:26;9.33;;;2.70;;
5553;SDS011;2800;49.528;8.666;2023-11-19T13:15:51;13.90;;;2.90;;
5553;SDS011;2800;49.528;8.666;2023-11-19T13:18:17;7.40;;;2.27;;
5553;SDS011;2800;49.528;8.666;2023-11-19T13:20:42;7.43;;;2.60;;
5553;SDS011;2800;49.528;8.666;2023-11-19T13:23:08;6.00;;;2.07;;
5553;SDS011;2800;49.528;8.666;2023-11-19T13:25:34;8.80;;;2.03;;
5553;SDS011;2800;49.528;8.666;2023-11-19T13:27:59;14.80;;;2.47;;
5553;SDS011;2800;49.528;8.666;2023-11-19T13:30:25;7.17;;;2.27;;
5553;SDS011;2800;49.528;8.666;2023-11-19T13:32:51;8.40;;;2.37;;
5553;SDS011;2800;49.528;8.666;2023-11-19T13:35:19;6.57;;;1.90;;
5553;SDS011;2800;49.528;8.666;2023-11-19T13:37:45;7.40;;;1.90;;
5553;SDS011;2800;49.528;8.666;2023-11-19T13:40:11;9.60;;;2.27;;
5553;SDS011;2800;49.528;8.666;2023-11-19T13:42:43;6.53;;;2.10;;
5553;SDS011;2800;49.528;8.666;2023-11-19T13:45:12;6.63;;;2.10;;
5553;SDS011;2800;49.528;8.666;2023-11-19T13:47:42;7.67;;;2.00;;
5553;SDS011;2800;49.528;8.666;2023-11-19T13:50:09;8.70;;;2.77;;
5553;SDS011;2800;49.528;8.666;2023-11-19T13:52:39;7.40;;;2.53;;
5553;SDS011;2800;49.528;8.666;2023-11-19T13:55:06;8.70;;;3.00;;
5553;SDS011;2800;49.528;8.666;2023-11-19T13:57:33;12.57;;;2.73;;
5553;SDS011;2800;49.528;8.666;2023-11-19T14:00:03;6.53;;;2.20;;
5553;SDS011;2800;49.528;8.666;2023-11-19T14:02:41;10.10;;;2.70;;
5553;SDS011;2800;49.528;8.666;2023-11-19T14:05:07;8.57;;;2.10;;
5553;SDS011;2800;49.528;8.666;2023-11-19T14:07:33;7.30;;;1.87;;
5553;SDS011;2800;49.528;8.666;2023-11-19T14:09:59;8.13;;;1.90;;
5553;SDS011;2800;49.528;8.666;2023-11-19T14:12:25;4.90;;;1.90;;
5553;SDS011;2800;49.528;8.666;2023-11-19T14:14:50;6.23;;;1.70;;
5553;SDS011;2800;49.528;8.666;2023-11-19T14:17:16;6.13;;;2.03;;
5553;SDS011;2800;49.528;8.666;2023-11-19T14:19:42;7.10;;;2.17;;
5553;SDS011;2800;49.528;8.666;2023-11-19T14:22:07;5.30;;;1.63;;
5553;SDS011;2800;49.528;8.666;2023-11-19T14:24:36;5.67;;;1.70;;
5553;SDS011;2800;49.528;8.666;2023-11-19T14:27:02;9.17;;;1.97;;
5553;SDS011;2800;49.528;8.666;2023-11-19T14:29:28;9.07;;;2.27;;
5553;SDS011;2800;49.528;8.666;2023-11-19T14:31:55;10.43;;;4.57;;
5553;SDS011;2800;49.528;8.666;2023-11-19T14:34:21;7.43;;;2.40;;
5553;SDS011;2800;49.528;8.666;2023-11-19T14:36:47;8.90;;;2.03;;
5553;SDS011;2800;49.528;8.666;2023-11-19T14:39:13;7.00;;;1.80;;
5553;SDS011;2800;49.528;8.666;2023-11-19T14:41:39;8.50;;;1.90;;
5553;SDS011;2800;49.528;8.666;2023-11-19T14:44:04;6.53;;;2.10;;
5553;SDS011;2800;49.528;8.666;2023-11-19T14:46:30;7.20;;;2.07;;
5553;SDS011;2800;49.528;8.666;2023-11-19T14:48:56;8.10;;;2.13;;
5553;SDS011;2800;49.528;8.666;2023-11-19T14:51:22;9.70;;;2.27;;
5553;SDS011;2800;49.528;8.666;2023-11-19T14:53:47;8.20;;;1.80;;
5553;SDS011;2800;49.528;8.666;2023-11-19T14:56:13;7.67;;;2.20;;
5553;SDS011;2800;49.528;8.666;2023-11-19T14:58:38;5.87;;;1.90;;
5553;SDS011;2800;49.528;8.666;2023-11-19T15:01:04;6.93;;;2.40;;
5553;SDS011;2800;49.528;8.666;2023-11-19T15:03:30;8.50;;;2.30;;
5553;SDS011;2800;49.528;8.666;2023-11-19T15:05:56;6.73;;;1.80;;
5553;SDS011;2800;49.528;8.666;2023-11-19T15:08:22;7.70;;;2.27;;
5553;SDS011;2800;49.528;8.666;2023-11-19T15:10:47;9.50;;;2.60;;
5553;SDS011;2800;49.528;8.666;2023-11-19T15:13:13;9.17;;;3.40;;
5553;SDS011;2800;49.528;8.666;2023-11-19T15:15:39;6.43;;;2.07;;
5553;SDS011;2800;49.528;8.666;2023-11-19T15:18:04;6.80;;;2.10;;
5553;SDS011;2800;49.528;8.666;2023-11-19T15:20:30;6.47;;;2.00;;
5553;SDS011;2800;49.528;8.666;2023-11-19T15:22:56;9.60;;;2.50;;
5553;SDS011;2800;49.528;8.666;2023-11-19T15:25:22;10.60;;;2.20;;
5553;SDS011;2800;49.528;8.666;2023-11-19T15:27:49;8.90;;;2.63;;
5553;SDS011;2800;49.528;8.666;2023-11-19T15:30:14;9.53;;;2.50;;
5553;SDS011;2800;49.528;8.666;2023-11-19T15:32:40;8.10;;;2.70;;
5553;SDS011;2800;49.528;8.666;2023-11-19T15:35:07;7.30;;;2.13;;
5553;SDS011;2800;49.528;8.666;2023-11-19T15:37:37;8.20;;;2.50;;